Time;durP1;ratioP1;P1;durP2;ratioP2;P2;SDS_P1;SDS_P2;PMS_P1;PMS_P2;Temp;Humidity;BMP_temperature;BMP_pressure;BME280_temperature;BME280_humidity;BME280_pressure;Samples;Min_cycle;Max_cycle;Signal;HPM_P1;HPM_P2
2022/08/31 00:07:54;;;;;;;;;;;19.20;99.90;;;;;;8413419;28;19950;-72
2022/08/31 00:11:56;;;;;;;;;;;19.10;99.90;;;;;;8389500;28;19960;-72
2022/08/31 00:15:57;;;;;;;;;;;19.10;99.90;;;;;;8422679;28;19927;-73
2022/08/31 00:19:59;;;;;;;;;;;19.10;99.90;;;;;;8404380;28;19931;-72
2022/08/31 00:24:01;;;;;;;;;;;19.00;99.90;;;;;;8408966;28;19921;-72
2022/08/31 00:28:03;;;;;;;;;;;19.00;99.90;;;;;;8409987;28;20293;-73
2022/08/31 00:32:05;;;;;;;;;;;18.90;99.90;;;;;;8404009;28;19920;-73
2022/08/31 00:36:08;;;;;;;;;;;18.90;99.90;;;;;;8400946;28;19952;-73
2022/08/31 00:40:10;;;;;;;;;;;18.90;99.90;;;;;;8388798;28;19931;-72
2022/08/31 00:44:12;;;;;;;;;;;18.80;99.90;;;;;;8418404;28;20485;-73
2022/08/31 00:48:14;;;;;;;;;;;18.80;99.90;;;;;;8410048;28;19940;-72
2022/08/31 00:52:20;;;;;;;;;;;18.70;99.90;;;;;;8415342;28;20364;-72
2022/08/31 00:56:22;;;;;;;;;;;18.70;99.90;;;;;;8426011;28;20417;-72
2022/08/31 01:00:25;;;;;;;;;;;18.70;99.90;;;;;;8412294;28;19967;-72
2022/08/31 01:04:27;;;;;;;;;;;18.60;99.90;;;;;;8420104;28;19927;-72
2022/08/31 01:08:29;;;;;;;;;;;18.60;99.90;;;;;;8411675;28;19920;-73
2022/08/31 01:12:31;;;;;;;;;;;18.50;99.90;;;;;;8421345;28;19920;-73
2022/08/31 01:16:38;;;;;;;;;;;18.50;99.90;;;;;;8415996;28;20370;-73
2022/08/31 01:20:45;;;;;;;;;;;18.50;99.90;;;;;;8415403;28;19971;-73
2022/08/31 01:24:49;;;;;;;;;;;18.40;99.90;;;;;;8413452;28;21941;-73
2022/08/31 01:28:52;;;;;;;;;;;18.40;99.90;;;;;;8408963;28;19931;-72
2022/08/31 01:32:54;;;;;;;;;;;18.30;99.90;;;;;;8407879;28;19928;-73
2022/08/31 01:36:55;;;;;;;;;;;18.30;99.90;;;;;;8412712;28;19931;-72
2022/08/31 01:40:58;;;;;;;;;;;18.30;99.90;;;;;;8415332;28;20474;-73
2022/08/31 01:45:00;;;;;;;;;;;18.20;99.90;;;;;;8394160;28;20008;-73
2022/08/31 01:49:02;;;;;;;;;;;18.20;99.90;;;;;;8422140;28;19920;-73
2022/08/31 01:53:04;;;;;;;;;;;18.20;99.90;;;;;;8415834;28;19973;-72
2022/08/31 01:57:05;;;;;;;;;;;18.10;99.90;;;;;;8413323;28;19920;-72
2022/08/31 02:01:08;;;;;;;;;;;18.10;99.90;;;;;;8400525;28;20351;-73
2022/08/31 02:05:17;;;;;;;;;;;18.10;99.90;;;;;;8415597;28;19919;-72
2022/08/31 02:09:20;;;;;;;;;;;18.00;99.90;;;;;;8405582;28;19928;-73
2022/08/31 02:13:21;;;;;;;;;;;18.00;99.90;;;;;;8404866;28;19927;-72
2022/08/31 02:17:23;;;;;;;;;;;17.90;99.90;;;;;;8402618;28;20753;-72
2022/08/31 02:21:25;;;;;;;;;;;17.90;99.90;;;;;;8390600;28;19920;-72
2022/08/31 02:25:26;;;;;;;;;;;17.90;99.90;;;;;;8393884;28;20389;-73
2022/08/31 02:29:28;;;;;;;;;;;17.80;99.90;;;;;;8416290;28;20372;-73
2022/08/31 02:33:29;;;;;;;;;;;17.80;99.90;;;;;;8405726;28;20363;-73
2022/08/31 02:37:31;;;;;;;;;;;17.80;99.90;;;;;;8392339;28;19920;-72
2022/08/31 02:41:33;;;;;;;;;;;17.70;99.90;;;;;;8401220;28;19938;-73
2022/08/31 02:45:38;;;;;;;;;;;17.70;99.90;;;;;;8414959;28;19920;-73
2022/08/31 02:49:39;;;;;;;;;;;17.70;99.90;;;;;;8414363;28;20279;-73
2022/08/31 02:53:41;;;;;;;;;;;17.60;99.90;;;;;;8407383;28;19924;-72
2022/08/31 02:57:42;;;;;;;;;;;17.60;99.90;;;;;;8410268;28;19928;-73
2022/08/31 03:01:44;;;;;;;;;;;17.60;99.90;;;;;;8403368;28;19924;-73
2022/08/31 03:05:46;;;;;;;;;;;17.50;99.90;;;;;;8408642;28;19919;-72
2022/08/31 03:09:48;;;;;;;;;;;17.50;99.90;;;;;;8412740;28;20386;-73
2022/08/31 03:13:50;;;;;;;;;;;17.50;99.90;;;;;;8394130;28;19996;-72
2022/08/31 03:17:54;;;;;;;;;;;17.40;99.90;;;;;;8416225;28;19935;-73
2022/08/31 03:21:56;;;;;;;;;;;17.40;99.90;;;;;;8405062;28;19950;-72
2022/08/31 03:25:58;;;;;;;;;;;17.30;99.90;;;;;;8412520;28;19928;-72
2022/08/31 03:30:00;;;;;;;;;;;17.30;99.90;;;;;;8411273;28;19924;-72
2022/08/31 03:34:01;;;;;;;;;;;17.30;99.90;;;;;;8406128;28;19927;-72
2022/08/31 03:38:04;;;;;;;;;;;17.20;99.90;;;;;;8403491;28;19936;-72
2022/08/31 03:42:05;;;;;;;;;;;17.20;99.90;;;;;;8410762;28;20329;-73
2022/08/31 03:46:07;;;;;;;;;;;17.10;99.90;;;;;;8409218;28;20030;-73
2022/08/31 03:50:14;;;;;;;;;;;17.10;99.90;;;;;;8411797;28;20282;-72
2022/08/31 03:54:17;;;;;;;;;;;17.00;99.90;;;;;;8399971;28;19920;-73
2022/08/31 03:58:19;;;;;;;;;;;17.00;99.90;;;;;;8416677;28;19920;-73
2022/08/31 04:02:21;;;;;;;;;;;16.90;99.90;;;;;;8412735;28;19920;-73
2022/08/31 04:06:22;;;;;;;;;;;16.90;99.90;;;;;;8395657;28;19926;-73
2022/08/31 04:10:24;;;;;;;;;;;16.90;99.90;;;;;;8423583;28;20363;-72
2022/08/31 04:14:26;;;;;;;;;;;16.90;99.90;;;;;;8415644;28;19920;-73
2022/08/31 04:18:27;;;;;;;;;;;16.80;99.90;;;;;;8419134;28;19927;-73
2022/08/31 04:22:29;;;;;;;;;;;16.80;99.90;;;;;;8408881;28;19921;-73
2022/08/31 04:26:32;;;;;;;;;;;16.70;99.90;;;;;;8409660;28;19934;-72
2022/08/31 04:30:38;;;;;;;;;;;16.70;99.90;;;;;;8412228;28;20280;-73
2022/08/31 04:34:40;;;;;;;;;;;16.70;99.90;;;;;;8417215;28;20275;-72
2022/08/31 04:38:42;;;;;;;;;;;16.60;99.90;;;;;;8397427;28;19927;-72
2022/08/31 04:42:47;;;;;;;;;;;16.60;99.90;;;;;;8410595;28;19924;-73
2022/08/31 04:46:49;;;;;;;;;;;16.60;99.90;;;;;;8396631;28;19931;-73
2022/08/31 04:50:58;;;;;;;;;;;16.60;99.90;;;;;;8416691;28;19927;-72
2022/08/31 04:54:59;;;;;;;;;;;16.50;99.90;;;;;;8413451;28;19932;-72
2022/08/31 04:59:02;;;;;;;;;;;16.50;99.90;;;;;;8397683;28;19920;-73
2022/08/31 05:03:04;;;;;;;;;;;16.40;99.90;;;;;;8412314;28;19920;-72
2022/08/31 05:07:06;;;;;;;;;;;16.40;99.90;;;;;;8421340;28;20331;-72
2022/08/31 05:11:11;;;;;;;;;;;16.40;99.90;;;;;;8407989;28;20131;-72
2022/08/31 05:15:13;;;;;;;;;;;16.40;99.90;;;;;;8423192;28;19920;-73
2022/08/31 05:19:15;;;;;;;;;;;16.40;99.90;;;;;;8415669;28;19927;-72
2022/08/31 05:23:17;;;;;;;;;;;16.40;99.90;;;;;;8416654;28;19920;-73
2022/08/31 05:27:18;;;;;;;;;;;16.40;99.90;;;;;;8408877;28;19955;-72
2022/08/31 05:31:20;;;;;;;;;;;16.40;99.90;;;;;;8412653;28;20240;-72
2022/08/31 05:35:22;;;;;;;;;;;16.40;99.90;;;;;;8407761;28;20436;-72
2022/08/31 05:39:24;;;;;;;;;;;16.40;99.90;;;;;;8399403;28;20306;-72
2022/08/31 05:43:27;;;;;;;;;;;16.40;99.90;;;;;;8400598;28;20336;-72
2022/08/31 05:47:28;;;;;;;;;;;16.40;99.90;;;;;;8393804;28;20573;-72
2022/08/31 05:51:30;;;;;;;;;;;16.40;99.90;;;;;;8405153;28;19924;-72
2022/08/31 05:55:36;;;;;;;;;;;16.50;99.90;;;;;;8416377;28;19923;-73
2022/08/31 05:59:38;;;;;;;;;;;16.50;99.90;;;;;;8415857;28;20397;-72
2022/08/31 06:03:41;;;;;;;;;;;16.50;99.90;;;;;;8401881;28;19920;-73
2022/08/31 06:07:45;;;;;;;;;;;16.50;99.90;;;;;;8425651;28;20417;-72
2022/08/31 06:11:47;;;;;;;;;;;16.50;99.90;;;;;;8414776;28;19935;-72
2022/08/31 06:15:49;;;;;;;;;;;16.50;99.90;;;;;;8397149;28;19924;-73
2022/08/31 06:19:50;;;;;;;;;;;16.60;99.90;;;;;;8402549;28;19920;-72
2022/08/31 06:23:53;;;;;;;;;;;16.60;99.90;;;;;;8404379;28;20394;-72
2022/08/31 06:27:55;;;;;;;;;;;16.60;99.90;;;;;;8409013;28;19927;-72
2022/08/31 06:31:59;;;;;;;;;;;16.60;99.90;;;;;;8416042;28;19921;-72
2022/08/31 06:36:00;;;;;;;;;;;16.70;99.90;;;;;;8394649;28;19924;-72
2022/08/31 06:40:02;;;;;;;;;;;16.70;99.90;;;;;;8402977;28;19920;-72
2022/08/31 06:44:06;;;;;;;;;;;16.70;99.90;;;;;;8393608;28;20339;-72
2022/08/31 06:48:08;;;;;;;;;;;16.80;99.90;;;;;;8406813;28;19943;-72
2022/08/31 06:52:09;;;;;;;;;;;16.90;99.90;;;;;;8387427;28;19963;-72
2022/08/31 06:56:15;;;;;;;;;;;17.00;99.90;;;;;;8410618;28;19921;-72
2022/08/31 07:00:21;;;;;;;;;;;17.00;99.90;;;;;;8407399;28;19927;-72
2022/08/31 07:04:23;;;;;;;;;;;17.20;99.90;;;;;;8407796;28;19928;-72
2022/08/31 07:08:24;;;;;;;;;;;17.20;99.90;;;;;;8404474;28;20280;-72
2022/08/31 07:12:26;;;;;;;;;;;17.20;99.90;;;;;;8419447;28;19920;-72
2022/08/31 07:16:28;;;;;;;;;;;17.30;99.90;;;;;;8421091;28;19974;-73
2022/08/31 07:20:30;;;;;;;;;;;17.30;99.90;;;;;;8417278;28;19924;-72
2022/08/31 07:24:33;;;;;;;;;;;17.40;99.90;;;;;;8418475;28;19920;-72
2022/08/31 07:28:37;;;;;;;;;;;17.60;99.90;;;;;;8394083;28;19938;-72
2022/08/31 07:32:39;;;;;;;;;;;17.70;99.90;;;;;;8420061;28;19919;-72
2022/08/31 07:45:22;;;;;;;;;;;18.00;99.90;;;;;;8414188;28;19927;-72
2022/08/31 07:49:25;;;;;;;;;;;18.10;99.90;;;;;;8415981;28;19924;-73
2022/08/31 07:53:26;;;;;;;;;;;18.20;99.90;;;;;;8409307;28;20328;-72
2022/08/31 07:57:33;;;;;;;;;;;18.30;99.90;;;;;;8408203;28;19924;-73
2022/08/31 08:01:36;;;;;;;;;;;18.30;99.90;;;;;;8410871;28;19920;-72
2022/08/31 08:05:40;;;;;;;;;;;18.40;99.90;;;;;;8395298;28;20390;-72
2022/08/31 08:09:42;;;;;;;;;;;18.50;99.90;;;;;;8419415;28;19982;-72
2022/08/31 08:13:44;;;;;;;;;;;18.60;99.90;;;;;;8404866;28;19966;-72
2022/08/31 08:17:45;;;;;;;;;;;18.80;99.90;;;;;;8411922;28;20269;-72
2022/08/31 08:21:47;;;;;;;;;;;18.90;99.90;;;;;;8408612;28;19966;-72
2022/08/31 08:25:50;;;;;;;;;;;19.00;99.90;;;;;;8406233;28;19924;-72
2022/08/31 08:29:52;;;;;;;;;;;19.10;99.90;;;;;;8399616;28;19928;-72
2022/08/31 08:33:54;;;;;;;;;;;19.30;99.90;;;;;;8417734;28;19928;-72
2022/08/31 08:37:56;;;;;;;;;;;19.40;99.90;;;;;;8412723;28;20017;-72
2022/08/31 08:42:01;;;;;;;;;;;19.50;99.90;;;;;;8397388;28;19977;-72
2022/08/31 08:46:04;;;;;;;;;;;19.60;99.90;;;;;;8415999;28;19925;-72
2022/08/31 08:50:27;;;;;;;;;;;19.70;99.90;;;;;;8401154;28;20390;-72
2022/08/31 08:54:30;;;;;;;;;;;19.70;99.90;;;;;;8410308;28;19920;-73
2022/08/31 08:58:34;;;;;;;;;;;19.70;99.90;;;;;;8389452;28;19943;-72
2022/08/31 09:02:47;;;;;;;;;;;19.80;99.90;;;;;;8390942;28;19927;-73
2022/08/31 09:07:03;;;;;;;;;;;19.80;99.90;;;;;;8382995;28;19926;-72
2022/08/31 09:11:16;;;;;;;;;;;19.90;99.90;;;;;;8407868;28;19920;-72
2022/08/31 09:15:36;;;;;;;;;;;20.10;99.90;;;;;;8402280;28;19943;-72
2022/08/31 09:24:04;;;;;;;;;;;20.40;99.90;;;;;;8410143;28;19928;-72
2022/08/31 09:28:07;;;;;;;;;;;20.60;99.90;;;;;;8402054;28;20356;-72
2022/08/31 09:32:15;;;;;;;;;;;20.70;99.90;;;;;;8387254;28;19977;-72
2022/08/31 09:36:18;;;;;;;;;;;20.80;99.90;;;;;;8404265;28;19950;-72
2022/08/31 09:40:35;;;;;;;;;;;20.90;99.90;;;;;;8406159;28;19920;-72
2022/08/31 09:44:40;;;;;;;;;;;21.00;99.90;;;;;;8409594;28;20020;-72
2022/08/31 09:48:45;;;;;;;;;;;21.20;99.90;;;;;;8389124;28;20407;-72
2022/08/31 09:57:08;;;;;;;;;;;21.30;99.90;;;;;;8405320;28;19920;-72
2022/08/31 10:01:12;;;;;;;;;;;21.40;99.90;;;;;;8403437;28;19924;-72
2022/08/31 10:05:28;;;;;;;;;;;21.40;99.90;;;;;;8406190;28;19920;-72
2022/08/31 10:09:36;;;;;;;;;;;21.40;99.90;;;;;;8386247;28;19920;-72
2022/08/31 10:13:40;;;;;;;;;;;21.50;99.90;;;;;;8406993;28;19920;-73
2022/08/31 10:17:48;;;;;;;;;;;21.50;99.90;;;;;;8411617;28;19920;-72
2022/08/31 10:21:51;;;;;;;;;;;21.50;99.90;;;;;;8411294;28;20267;-72
2022/08/31 10:25:57;;;;;;;;;;;21.70;99.90;;;;;;8393916;28;19927;-72
2022/08/31 10:30:18;;;;;;;;;;;21.90;99.90;;;;;;8391557;28;19940;-72
2022/08/31 10:38:45;;;;;;;;;;;22.20;99.90;;;;;;8402539;28;19920;-72
2022/08/31 10:42:56;;;;;;;;;;;22.30;99.90;;;;;;8395250;28;19928;-72
2022/08/31 10:47:01;;;;;;;;;;;22.30;99.90;;;;;;8403232;28;19920;-72
2022/08/31 10:51:19;;;;;;;;;;;22.20;99.90;;;;;;8411727;28;22156;-72
2022/08/31 10:55:36;;;;;;;;;;;22.20;99.90;;;;;;8395041;28;19927;-72
2022/08/31 10:59:57;;;;;;;;;;;22.20;99.90;;;;;;8390107;28;20379;-72
2022/08/31 11:03:59;;;;;;;;;;;22.40;99.90;;;;;;8397271;28;19928;-72
2022/08/31 11:08:01;;;;;;;;;;;22.50;99.90;;;;;;8391641;28;20024;-72
2022/08/31 11:12:10;;;;;;;;;;;22.60;99.90;;;;;;8395015;28;19994;-72
2022/08/31 11:16:39;;;;;;;;;;;22.70;99.90;;;;;;8398254;28;20004;-72
2022/08/31 11:20:59;;;;;;;;;;;22.70;99.90;;;;;;8388190;28;19920;-72
2022/08/31 11:25:07;;;;;;;;;;;22.70;99.90;;;;;;8409897;28;19920;-72
2022/08/31 11:29:28;;;;;;;;;;;22.50;99.90;;;;;;8419920;28;19928;-72
2022/08/31 11:33:30;;;;;;;;;;;22.40;99.90;;;;;;8403928;28;20042;-72
2022/08/31 11:37:51;;;;;;;;;;;22.50;99.90;;;;;;8401525;28;19924;-72
2022/08/31 11:41:53;;;;;;;;;;;22.50;99.90;;;;;;8400821;28;19928;-72
2022/08/31 11:46:00;;;;;;;;;;;22.50;99.90;;;;;;8384573;28;19928;-72
2022/08/31 11:50:31;;;;;;;;;;;22.50;99.90;;;;;;8397231;28;20001;-72
2022/08/31 11:54:41;;;;;;;;;;;22.40;99.90;;;;;;8398496;28;19928;-72
2022/08/31 11:58:49;;;;;;;;;;;22.50;99.90;;;;;;8400466;28;20424;-72
2022/08/31 12:03:01;;;;;;;;;;;22.70;99.90;;;;;;8389664;28;19966;-72
2022/08/31 12:07:03;;;;;;;;;;;22.80;99.90;;;;;;8407135;28;19920;-72
2022/08/31 12:11:19;;;;;;;;;;;23.10;99.90;;;;;;8405732;28;19920;-72
2022/08/31 12:15:40;;;;;;;;;;;23.40;99.90;;;;;;8403237;28;20458;-72
2022/08/31 12:19:59;;;;;;;;;;;23.60;99.90;;;;;;8385483;28;19923;-72
2022/08/31 12:24:05;;;;;;;;;;;23.80;99.90;;;;;;8405070;28;19932;-72
2022/08/31 12:28:28;;;;;;;;;;;23.80;99.90;;;;;;8406322;28;19924;-72
2022/08/31 12:32:31;;;;;;;;;;;23.80;99.90;;;;;;8415542;28;20037;-72
2022/08/31 12:36:34;;;;;;;;;;;23.90;99.90;;;;;;8410940;28;19931;-72
2022/08/31 12:40:42;;;;;;;;;;;23.80;99.90;;;;;;8391628;28;19927;-72
2022/08/31 12:44:48;;;;;;;;;;;23.80;99.90;;;;;;8414775;28;19943;-72
2022/08/31 12:48:59;;;;;;;;;;;23.80;99.90;;;;;;8397528;28;19927;-72
2022/08/31 12:53:07;;;;;;;;;;;23.90;99.90;;;;;;8408474;28;19920;-72
2022/08/31 12:57:28;;;;;;;;;;;23.90;99.90;;;;;;8412680;28;19928;-72
2022/08/31 13:01:29;;;;;;;;;;;23.90;99.90;;;;;;8390934;28;20271;-73
2022/08/31 13:05:33;;;;;;;;;;;23.90;99.90;;;;;;8386703;28;19959;-72
2022/08/31 13:09:35;;;;;;;;;;;23.90;99.90;;;;;;8395264;28;19927;-72
2022/08/31 13:13:36;;;;;;;;;;;23.90;99.90;;;;;;8406491;28;19920;-72
2022/08/31 13:17:38;;;;;;;;;;;24.00;99.90;;;;;;8404870;28;19958;-72
2022/08/31 13:21:40;;;;;;;;;;;24.00;99.90;;;;;;8405859;28;19939;-72
2022/08/31 13:25:43;;;;;;;;;;;24.00;99.90;;;;;;8406118;28;20384;-72
2022/08/31 13:29:49;;;;;;;;;;;24.10;99.90;;;;;;8401942;28;19924;-72
2022/08/31 13:33:55;;;;;;;;;;;24.10;99.90;;;;;;8411000;28;19924;-72
2022/08/31 13:38:03;;;;;;;;;;;24.10;99.90;;;;;;8398633;28;19924;-72
2022/08/31 13:42:07;;;;;;;;;;;24.10;99.90;;;;;;8394892;28;19943;-72
2022/08/31 13:46:08;;;;;;;;;;;24.20;99.90;;;;;;8403672;28;20364;-72
2022/08/31 13:50:16;;;;;;;;;;;24.20;99.90;;;;;;8400501;28;19956;-72
2022/08/31 13:54:25;;;;;;;;;;;24.20;99.90;;;;;;8412038;28;19921;-72
2022/08/31 13:58:29;;;;;;;;;;;24.30;99.90;;;;;;8411631;28;19932;-72
2022/08/31 14:02:31;;;;;;;;;;;24.30;99.90;;;;;;8400121;28;19920;-72
2022/08/31 14:06:38;;;;;;;;;;;24.40;99.90;;;;;;8399886;28;19979;-72
2022/08/31 14:10:41;;;;;;;;;;;24.60;99.90;;;;;;8397573;28;19947;-72
2022/08/31 14:14:43;;;;;;;;;;;24.80;99.90;;;;;;8399279;28;19927;-72
2022/08/31 14:18:46;;;;;;;;;;;24.90;99.90;;;;;;8401838;28;19924;-72
2022/08/31 14:22:48;;;;;;;;;;;24.90;99.90;;;;;;8404821;28;19927;-72
2022/08/31 14:26:50;;;;;;;;;;;24.90;99.90;;;;;;8409037;28;20375;-73
2022/08/31 14:30:52;;;;;;;;;;;24.90;99.90;;;;;;8396705;28;20324;-72
2022/08/31 14:34:56;;;;;;;;;;;24.90;99.90;;;;;;8401797;28;19927;-72
2022/08/31 14:38:58;;;;;;;;;;;24.90;99.90;;;;;;8405527;28;19928;-72
2022/08/31 14:42:59;;;;;;;;;;;24.80;99.90;;;;;;8409071;28;20359;-72
2022/08/31 14:47:01;;;;;;;;;;;24.80;99.90;;;;;;8410357;28;19927;-72
2022/08/31 14:51:05;;;;;;;;;;;24.70;99.90;;;;;;8403057;28;19920;-72
2022/08/31 14:55:10;;;;;;;;;;;24.70;99.90;;;;;;8394734;28;20360;-72
2022/08/31 14:59:15;;;;;;;;;;;24.70;99.90;;;;;;8395965;28;19924;-72
2022/08/31 15:03:16;;;;;;;;;;;24.80;99.90;;;;;;8400978;28;19920;-73
2022/08/31 15:07:19;;;;;;;;;;;24.80;99.90;;;;;;8411092;28;19924;-72
2022/08/31 15:11:20;;;;;;;;;;;25.00;99.90;;;;;;8400290;28;19928;-73
2022/08/31 15:15:22;;;;;;;;;;;25.20;99.90;;;;;;8391131;28;19927;-72
2022/08/31 15:19:24;;;;;;;;;;;25.60;99.90;;;;;;8399236;28;19970;-72
2022/08/31 15:23:27;;;;;;;;;;;26.10;99.90;;;;;;8406654;28;19920;-72
2022/08/31 15:27:30;;;;;;;;;;;26.30;99.90;;;;;;8408635;28;19920;-72
2022/08/31 15:31:31;;;;;;;;;;;26.30;99.90;;;;;;8396323;28;19920;-72
2022/08/31 15:35:35;;;;;;;;;;;26.10;99.60;;;;;;8390662;28;22297;-72
2022/08/31 15:39:42;;;;;;;;;;;26.00;99.30;;;;;;8405884;28;20370;-72
2022/08/31 15:43:43;;;;;;;;;;;26.10;99.20;;;;;;8397873;28;19927;-72
2022/08/31 15:52:07;;;;;;;;;;;26.50;98.90;;;;;;8401447;28;19928;-72
2022/08/31 15:56:10;;;;;;;;;;;26.60;98.60;;;;;;8404177;28;20318;-72
2022/08/31 16:00:12;;;;;;;;;;;26.60;98.60;;;;;;8419268;28;19920;-72
2022/08/31 16:04:22;;;;;;;;;;;26.90;98.80;;;;;;8411470;28;19921;-72
2022/08/31 16:18:31;;;;;;;;;;;28.10;99.60;;;;;;8399705;28;19981;-72
2022/08/31 16:22:33;;;;;;;;;;;28.40;99.60;;;;;;8376791;28;19924;-73
2022/08/31 16:26:36;;;;;;;;;;;28.60;99.50;;;;;;8395716;28;19920;-72
2022/08/31 16:30:37;;;;;;;;;;;28.60;99.20;;;;;;8401646;28;19966;-72
2022/08/31 16:34:39;;;;;;;;;;;28.50;99.20;;;;;;8399464;28;19935;-73
2022/08/31 16:38:40;;;;;;;;;;;28.30;99.10;;;;;;8386067;28;20366;-72
2022/08/31 16:42:42;;;;;;;;;;;28.10;98.80;;;;;;8396007;28;19928;-72
2022/08/31 16:46:44;;;;;;;;;;;28.10;98.50;;;;;;8391327;28;19924;-73
2022/08/31 16:50:46;;;;;;;;;;;28.20;98.40;;;;;;8394966;28;20171;-72
2022/08/31 16:54:49;;;;;;;;;;;28.30;98.20;;;;;;8389783;28;19924;-73
2022/08/31 16:58:51;;;;;;;;;;;28.40;98.00;;;;;;8402366;28;20031;-73
2022/08/31 17:02:53;;;;;;;;;;;28.50;97.60;;;;;;8393561;28;19931;-72
2022/08/31 17:06:56;;;;;;;;;;;28.60;97.30;;;;;;8393559;28;19931;-72
2022/08/31 17:11:02;;;;;;;;;;;28.60;97.10;;;;;;8376358;28;19920;-72
2022/08/31 17:15:04;;;;;;;;;;;28.60;96.80;;;;;;8383231;28;19943;-72
2022/08/31 17:19:11;;;;;;;;;;;28.60;96.50;;;;;;8381445;28;19924;-72
2022/08/31 17:23:14;;;;;;;;;;;28.60;96.20;;;;;;8384074;28;19959;-72
2022/08/31 17:27:18;;;;;;;;;;;28.50;95.90;;;;;;8384482;28;19920;-73
2022/08/31 17:31:19;;;;;;;;;;;28.50;95.80;;;;;;8386464;28;19978;-72
2022/08/31 17:35:21;;;;;;;;;;;28.30;95.50;;;;;;8385439;28;19932;-73
2022/08/31 17:39:23;;;;;;;;;;;28.20;95.20;;;;;;8378652;28;19935;-73
2022/08/31 17:43:25;;;;;;;;;;;28.00;95.00;;;;;;8379462;28;19920;-72
2022/08/31 17:47:27;;;;;;;;;;;27.80;94.80;;;;;;8383688;28;19927;-73
2022/08/31 17:51:30;;;;;;;;;;;27.50;94.40;;;;;;8379315;28;19928;-72
2022/08/31 17:55:31;;;;;;;;;;;27.10;94.00;;;;;;8381804;28;19924;-72
2022/08/31 17:59:35;;;;;;;;;;;26.70;93.60;;;;;;8383143;28;20420;-72
2022/08/31 18:03:37;;;;;;;;;;;26.40;93.20;;;;;;8389209;28;20325;-72
2022/08/31 18:07:39;;;;;;;;;;;26.00;92.80;;;;;;8390179;28;19974;-73
2022/08/31 18:11:44;;;;;;;;;;;25.70;92.50;;;;;;8389583;28;19928;-72
2022/08/31 18:15:47;;;;;;;;;;;25.40;92.30;;;;;;8389257;28;19927;-72
2022/08/31 18:19:48;;;;;;;;;;;25.20;92.10;;;;;;8382669;28;20299;-72
2022/08/31 18:23:51;;;;;;;;;;;24.90;91.90;;;;;;8388251;28;20613;-73
2022/08/31 18:27:55;;;;;;;;;;;24.80;91.70;;;;;;8389663;28;20240;-72
2022/08/31 18:31:58;;;;;;;;;;;24.60;91.60;;;;;;8390176;28;19935;-72
2022/08/31 18:36:01;;;;;;;;;;;24.50;91.50;;;;;;8391600;28;19920;-72
2022/08/31 18:48:55;;;;;;;;;;;24.00;91.30;;;;;;8384893;28;19928;-72
2022/08/31 18:53:03;;;;;;;;;;;24.00;91.30;;;;;;8382266;28;19923;-72
2022/08/31 18:57:12;;;;;;;;;;;23.80;91.20;;;;;;8392119;28;19928;-71
2022/08/31 19:01:15;;;;;;;;;;;23.70;91.10;;;;;;8385436;28;19931;-72
2022/08/31 19:05:17;;;;;;;;;;;23.60;91.10;;;;;;8376549;28;19959;-72
2022/08/31 19:09:21;;;;;;;;;;;23.50;91.10;;;;;;8384459;28;19924;-72
2022/08/31 19:13:26;;;;;;;;;;;23.40;91.00;;;;;;8383920;28;19939;-72
2022/08/31 19:17:29;;;;;;;;;;;23.40;91.10;;;;;;8384622;28;19920;-72
2022/08/31 19:21:32;;;;;;;;;;;23.30;91.00;;;;;;8372255;28;19924;-73
2022/08/31 19:25:41;;;;;;;;;;;23.20;90.90;;;;;;8381819;28;20686;-72
2022/08/31 19:29:42;;;;;;;;;;;23.10;90.90;;;;;;8387662;28;19921;-72
2022/08/31 19:33:44;;;;;;;;;;;23.00;90.90;;;;;;8363733;28;19925;-72
2022/08/31 19:37:50;;;;;;;;;;;22.90;90.90;;;;;;8380584;28;19924;-72
2022/08/31 19:41:53;;;;;;;;;;;22.80;90.80;;;;;;8381994;28;19932;-73
2022/08/31 19:45:58;;;;;;;;;;;22.70;90.80;;;;;;8381023;28;20371;-73
2022/08/31 19:50:10;;;;;;;;;;;22.60;90.80;;;;;;8381921;28;19952;-72
2022/08/31 19:54:18;;;;;;;;;;;22.50;90.70;;;;;;8385564;28;19930;-72
2022/08/31 19:58:24;;;;;;;;;;;22.40;90.70;;;;;;8383754;28;20430;-72
2022/08/31 20:02:25;;;;;;;;;;;22.40;90.70;;;;;;8364160;28;19920;-73
2022/08/31 20:06:27;;;;;;;;;;;22.30;90.60;;;;;;8384860;28;19927;-72
2022/08/31 20:10:29;;;;;;;;;;;22.30;90.50;;;;;;8388733;28;20636;-72
2022/08/31 20:14:31;;;;;;;;;;;22.20;90.40;;;;;;8390151;28;19952;-72
2022/08/31 20:18:33;;;;;;;;;;;22.20;90.40;;;;;;8382964;28;20287;-72
2022/08/31 20:22:39;;;;;;;;;;;22.10;90.20;;;;;;8380447;28;19928;-72
2022/08/31 20:26:42;;;;;;;;;;;22.10;90.10;;;;;;8371717;28;19920;-72
2022/08/31 20:30:47;;;;;;;;;;;22.00;90.00;;;;;;8378048;28;19924;-72
2022/08/31 20:34:50;;;;;;;;;;;22.00;89.70;;;;;;8394792;28;19932;-72
2022/08/31 20:38:55;;;;;;;;;;;21.90;89.50;;;;;;8393014;28;20142;-72
2022/08/31 20:42:59;;;;;;;;;;;21.90;89.40;;;;;;8393247;28;19920;-72
2022/08/31 20:51:23;;;;;;;;;;;21.70;89.00;;;;;;8380290;28;20291;-72
2022/08/31 20:55:24;;;;;;;;;;;21.70;89.00;;;;;;8391350;28;20002;-72
2022/08/31 20:59:26;;;;;;;;;;;21.60;89.00;;;;;;8369386;28;20517;-72
2022/08/31 21:03:28;;;;;;;;;;;21.50;89.00;;;;;;8378926;28;19924;-73
2022/08/31 21:07:30;;;;;;;;;;;21.50;89.00;;;;;;8407546;28;19971;-72
2022/08/31 21:11:35;;;;;;;;;;;21.40;89.00;;;;;;8407678;28;19946;-72
2022/08/31 21:15:44;;;;;;;;;;;21.30;89.00;;;;;;8400363;28;19928;-73
2022/08/31 21:19:47;;;;;;;;;;;21.30;89.10;;;;;;8386656;28;19924;-72
2022/08/31 21:23:49;;;;;;;;;;;21.20;89.10;;;;;;8405650;28;19931;-72
2022/08/31 21:27:51;;;;;;;;;;;21.20;89.20;;;;;;8412622;28;19964;-72
2022/08/31 21:31:54;;;;;;;;;;;21.20;89.20;;;;;;8396661;28;20020;-72
2022/08/31 21:36:04;;;;;;;;;;;21.10;89.20;;;;;;8407829;28;19920;-72
2022/08/31 21:40:06;;;;;;;;;;;21.00;89.40;;;;;;8391735;28;19919;-72
2022/08/31 21:44:10;;;;;;;;;;;20.90;89.60;;;;;;8390961;28;20022;-73
2022/08/31 21:48:12;;;;;;;;;;;20.90;89.80;;;;;;8385823;28;19944;-72
2022/08/31 21:52:14;;;;;;;;;;;20.80;90.00;;;;;;8406385;28;19927;-72
2022/08/31 21:56:17;;;;;;;;;;;20.80;90.10;;;;;;8389360;28;19920;-72
2022/08/31 22:00:27;;;;;;;;;;;20.70;90.20;;;;;;8405739;28;19927;-72
2022/08/31 22:04:31;;;;;;;;;;;20.60;90.20;;;;;;8404975;28;19942;-72
2022/08/31 22:08:33;;;;;;;;;;;20.60;90.30;;;;;;8407539;28;19928;-72
2022/08/31 22:12:35;;;;;;;;;;;20.60;90.40;;;;;;8408677;28;20322;-72
2022/08/31 22:16:38;;;;;;;;;;;20.50;90.50;;;;;;8409099;28;19920;-72
2022/08/31 22:20:40;;;;;;;;;;;20.40;90.60;;;;;;8405756;28;19977;-72
2022/08/31 22:24:42;;;;;;;;;;;20.40;90.70;;;;;;8407675;28;19935;-72
2022/08/31 22:28:45;;;;;;;;;;;20.40;90.80;;;;;;8413001;28;19920;-72
2022/08/31 22:32:46;;;;;;;;;;;20.30;90.90;;;;;;8403693;28;19920;-72
2022/08/31 22:36:50;;;;;;;;;;;20.20;91.00;;;;;;8401901;28;19920;-72
2022/08/31 22:40:52;;;;;;;;;;;20.20;91.20;;;;;;8408150;28;19920;-73
2022/08/31 22:44:54;;;;;;;;;;;20.10;91.30;;;;;;8408391;28;19924;-72
2022/08/31 22:48:56;;;;;;;;;;;20.10;91.40;;;;;;8409280;28;19931;-73
2022/08/31 22:52:58;;;;;;;;;;;20.00;91.50;;;;;;8402014;28;19923;-72
2022/08/31 22:56:59;;;;;;;;;;;20.00;91.70;;;;;;8405681;28;19924;-73
2022/08/31 23:11:18;;;;;;;;;;;19.80;91.90;;;;;;8397482;28;19915;-72
2022/08/31 23:15:20;;;;;;;;;;;19.70;92.00;;;;;;8401954;28;19973;-73
2022/08/31 23:19:25;;;;;;;;;;;19.70;92.20;;;;;;8390675;28;19920;-72
2022/08/31 23:23:27;;;;;;;;;;;19.60;92.30;;;;;;8404933;28;20433;-72
2022/08/31 23:27:31;;;;;;;;;;;19.60;92.40;;;;;;8404823;28;19927;-72
2022/08/31 23:31:32;;;;;;;;;;;19.50;92.50;;;;;;8402106;28;19924;-72
2022/08/31 23:35:34;;;;;;;;;;;19.50;92.60;;;;;;8403381;28;19947;-72
2022/08/31 23:39:38;;;;;;;;;;;19.40;92.70;;;;;;8398713;28;19924;-72
2022/08/31 23:43:39;;;;;;;;;;;19.40;92.80;;;;;;8400829;28;19931;-72
2022/08/31 23:47:41;;;;;;;;;;;19.40;92.90;;;;;;8393945;28;20286;-72
2022/08/31 23:51:43;;;;;;;;;;;19.30;93.00;;;;;;8400619;28;19924;-72
2022/08/31 23:55:45;;;;;;;;;;;19.30;93.10;;;;;;8407725;28;19956;-72
2022/08/31 23:59:47;;;;;;;;;;;19.20;93.20;;;;;;8412242;28;20132;-73
